sensor_id;sensor_type;location;lat;lon;timestamp;pressure;altitude;pressure_sealevel;temperature;humidity
38197;BME280;26543;51.976;4.616;2024-03-07T00:00:59;57186.53;;;-140.72;100.00
38197;BME280;26543;51.976;4.616;2024-03-07T00:03:31;57182.47;;;-140.72;100.00
38197;BME280;26543;51.976;4.616;2024-03-07T00:05:56;57198.72;;;-140.72;100.00
38197;BME280;26543;51.976;4.616;2024-03-07T00:08:22;57227.16;;;-140.72;100.00
38197;BME280;26543;51.976;4.616;2024-03-07T00:10:48;57210.91;;;-140.72;100.00
38197;BME280;26543;51.976;4.616;2024-03-07T00:13:14;57247.47;;;-140.72;100.00
38197;BME280;26543;51.976;4.616;2024-03-07T00:16:12;57221.06;;;-140.72;100.00
38197;BME280;26543;51.976;4.616;2024-03-07T00:18:38;57284.06;;;-140.72;100.00
38197;BME280;26543;51.976;4.616;2024-03-07T00:21:04;57292.19;;;-140.72;100.00
38197;BME280;26543;51.976;4.616;2024-03-07T00:23:43;57304.38;;;-140.72;100.00
38197;BME280;26543;51.976;4.616;2024-03-07T00:26:08;57353.13;;;-140.72;100.00
38197;BME280;26543;51.976;4.616;2024-03-07T00:28:34;57345.00;;;-140.72;100.00
38197;BME280;26543;51.976;4.616;2024-03-07T00:31:04;57365.31;;;-140.72;100.00
38197;BME280;26543;51.976;4.616;2024-03-07T00:33:32;57401.88;;;-140.72;100.00
38197;BME280;26543;51.976;4.616;2024-03-07T00:35:58;57391.72;;;-140.72;100.00
38197;BME280;26543;51.976;4.616;2024-03-07T00:38:23;57397.81;;;-140.72;100.00
38197;BME280;26543;51.976;4.616;2024-03-07T00:40:51;57405.94;;;-140.72;100.00
38197;BME280;26543;51.976;4.616;2024-03-07T00:43:16;57387.66;;;-140.72;100.00
38197;BME280;26543;51.976;4.616;2024-03-07T00:45:41;57385.63;;;-140.72;100.00
38197;BME280;26543;51.976;4.616;2024-03-07T00:48:07;57420.16;;;-140.72;100.00
38197;BME280;26543;51.976;4.616;2024-03-07T00:50:32;57365.31;;;-140.72;100.00
38197;BME280;26543;51.976;4.616;2024-03-07T00:52:57;57422.22;;;-140.72;100.00
38197;BME280;26543;51.976;4.616;2024-03-07T00:55:23;57416.09;;;-140.72;100.00
38197;BME280;26543;51.976;4.616;2024-03-07T00:57:48;57412.03;;;-140.72;100.00
38197;BME280;26543;51.976;4.616;2024-03-07T01:00:14;57369.38;;;-140.72;100.00
38197;BME280;26543;51.976;4.616;2024-03-07T01:02:42;57381.56;;;-140.72;100.00
38197;BME280;26543;51.976;4.616;2024-03-07T01:05:12;57450.66;;;-140.72;100.00
38197;BME280;26543;51.976;4.616;2024-03-07T01:08:11;57405.94;;;-140.72;100.00
38197;BME280;26543;51.976;4.616;2024-03-07T01:10:36;57475.03;;;-140.72;100.00
38197;BME280;26543;51.976;4.616;2024-03-07T01:13:01;57434.41;;;-140.72;100.00
38197;BME280;26543;51.976;4.616;2024-03-07T01:15:28;57487.22;;;-140.72;100.00
38197;BME280;26543;51.976;4.616;2024-03-07T01:17:53;57470.97;;;-140.72;100.00
38197;BME280;26543;51.976;4.616;2024-03-07T01:20:18;57487.22;;;-140.72;100.00
38197;BME280;26543;51.976;4.616;2024-03-07T01:22:44;57540.03;;;-140.72;100.00
38197;BME280;26543;51.976;4.616;2024-03-07T01:25:10;57499.41;;;-140.72;100.00
38197;BME280;26543;51.976;4.616;2024-03-07T01:27:35;57546.13;;;-140.72;100.00
38197;BME280;26543;51.976;4.616;2024-03-07T01:30:00;57540.03;;;-140.72;100.00
38197;BME280;26543;51.976;4.616;2024-03-07T01:32:27;57594.91;;;-140.72;100.00
38197;BME280;26543;51.976;4.616;2024-03-07T01:34:53;57560.38;;;-140.72;100.00
38197;BME280;26543;51.976;4.616;2024-03-07T01:37:18;57540.03;;;-140.72;100.00
38197;BME280;26543;51.976;4.616;2024-03-07T01:39:43;57572.56;;;-140.72;100.00
38197;BME280;26543;51.976;4.616;2024-03-07T01:42:09;57623.34;;;-140.72;100.00
38197;BME280;26543;51.976;4.616;2024-03-07T01:44:34;57666.00;;;-140.72;100.00
38197;BME280;26543;51.976;4.616;2024-03-07T01:46:59;57613.19;;;-140.72;100.00
38197;BME280;26543;51.976;4.616;2024-03-07T01:49:31;57659.91;;;-140.72;100.00
38197;BME280;26543;51.976;4.616;2024-03-07T01:51:58;57668.03;;;-140.72;100.00
38197;BME280;26543;51.976;4.616;2024-03-07T01:54:23;57584.75;;;-140.72;100.00
38197;BME280;26543;51.976;4.616;2024-03-07T01:56:50;57631.47;;;-140.72;100.00
38197;BME280;26543;51.976;4.616;2024-03-07T01:59:16;57666.00;;;-140.72;100.00
38197;BME280;26543;51.976;4.616;2024-03-07T02:01:42;57698.53;;;-140.72;100.00
38197;BME280;26543;51.976;4.616;2024-03-07T02:04:08;57678.22;;;-140.72;100.00
38197;BME280;26543;51.976;4.616;2024-03-07T02:06:34;57690.41;;;-140.72;100.00
38197;BME280;26543;51.976;4.616;2024-03-07T02:09:00;57655.84;;;-140.72;100.00
38197;BME280;26543;51.976;4.616;2024-03-07T02:11:27;57682.28;;;-140.72;100.00
38197;BME280;26543;51.976;4.616;2024-03-07T02:13:52;57688.38;;;-140.72;100.00
38197;BME280;26543;51.976;4.616;2024-03-07T02:16:18;57684.31;;;-140.72;100.00
38197;BME280;26543;51.976;4.616;2024-03-07T02:18:44;57661.94;;;-140.72;100.00
38197;BME280;26543;51.976;4.616;2024-03-07T02:21:10;57714.78;;;-140.72;100.00
38197;BME280;26543;51.976;4.616;2024-03-07T02:23:35;57718.84;;;-140.72;100.00
38197;BME280;26543;51.976;4.616;2024-03-07T02:26:01;57698.53;;;-140.72;100.00
38197;BME280;26543;51.976;4.616;2024-03-07T02:28:26;57720.88;;;-140.72;100.00
38197;BME280;26543;51.976;4.616;2024-03-07T02:30:53;57698.53;;;-140.72;100.00
38197;BME280;26543;51.976;4.616;2024-03-07T02:33:18;57690.41;;;-140.72;100.00
38197;BME280;26543;51.976;4.616;2024-03-07T02:35:44;57696.50;;;-140.72;100.00
38197;BME280;26543;51.976;4.616;2024-03-07T02:38:10;57724.94;;;-140.72;100.00
38197;BME280;26543;51.976;4.616;2024-03-07T02:40:35;57700.56;;;-140.72;100.00
38197;BME280;26543;51.976;4.616;2024-03-07T02:43:01;57737.13;;;-140.72;100.00
38197;BME280;26543;51.976;4.616;2024-03-07T02:45:30;57767.59;;;-140.72;100.00
38197;BME280;26543;51.976;4.616;2024-03-07T02:47:55;57722.91;;;-140.72;100.00
38197;BME280;26543;51.976;4.616;2024-03-07T02:50:21;57733.06;;;-140.72;100.00
38197;BME280;26543;51.976;4.616;2024-03-07T02:52:47;57755.41;;;-140.72;100.00
38197;BME280;26543;51.976;4.616;2024-03-07T02:55:13;57694.47;;;-140.72;100.00
38197;BME280;26543;51.976;4.616;2024-03-07T02:57:39;57741.19;;;-140.72;100.00
38197;BME280;26543;51.976;4.616;2024-03-07T03:00:04;57761.50;;;-140.72;100.00
38197;BME280;26543;51.976;4.616;2024-03-07T03:02:39;57775.75;;;-140.72;100.00
38197;BME280;26543;51.976;4.616;2024-03-07T03:05:05;57796.06;;;-140.72;100.00
38197;BME280;26543;51.976;4.616;2024-03-07T03:07:33;57722.91;;;-140.72;100.00
38197;BME280;26543;51.976;4.616;2024-03-07T03:09:58;57743.22;;;-140.72;100.00
38197;BME280;26543;51.976;4.616;2024-03-07T03:12:23;57810.28;;;-140.72;100.00
38197;BME280;26543;51.976;4.616;2024-03-07T03:14:49;57863.09;;;-140.72;100.00
38197;BME280;26543;51.976;4.616;2024-03-07T03:17:17;57796.06;;;-140.72;100.00
38197;BME280;26543;51.976;4.616;2024-03-07T03:19:42;57844.81;;;-140.72;100.00
38197;BME280;26543;51.976;4.616;2024-03-07T03:22:07;57865.13;;;-140.72;100.00
38197;BME280;26543;51.976;4.616;2024-03-07T03:24:33;57838.72;;;-140.72;100.00
38197;BME280;26543;51.976;4.616;2024-03-07T03:26:58;57926.09;;;-140.72;100.00
38197;BME280;26543;51.976;4.616;2024-03-07T03:29:24;57915.94;;;-140.72;100.00
38197;BME280;26543;51.976;4.616;2024-03-07T03:31:49;57934.22;;;-140.72;100.00
38197;BME280;26543;51.976;4.616;2024-03-07T03:34:14;57926.09;;;-140.72;100.00
38197;BME280;26543;51.976;4.616;2024-03-07T03:36:40;57960.63;;;-140.72;100.00
38197;BME280;26543;51.976;4.616;2024-03-07T03:39:05;58017.53;;;-140.72;100.00
38197;BME280;26543;51.976;4.616;2024-03-07T03:41:32;58056.16;;;-140.72;100.00
38197;BME280;26543;51.976;4.616;2024-03-07T03:43:57;58092.72;;;-140.72;100.00
38197;BME280;26543;51.976;4.616;2024-03-07T03:46:23;58106.94;;;-140.72;100.00
38197;BME280;26543;51.976;4.616;2024-03-07T03:48:48;58121.16;;;-140.72;100.00
38197;BME280;26543;51.976;4.616;2024-03-07T03:51:15;58192.28;;;-140.72;100.00
38197;BME280;26543;51.976;4.616;2024-03-07T03:53:41;58216.69;;;-140.72;100.00
38197;BME280;26543;51.976;4.616;2024-03-07T03:56:10;58269.50;;;-140.72;100.00
38197;BME280;26543;51.976;4.616;2024-03-07T03:58:37;58322.34;;;-140.72;100.00
38197;BME280;26543;51.976;4.616;2024-03-07T04:01:02;58391.44;;;-140.72;100.00
38197;BME280;26543;51.976;4.616;2024-03-07T04:03:27;58358.94;;;-140.72;100.00
38197;BME280;26543;51.976;4.616;2024-03-07T04:05:53;58434.13;;;-140.72;100.00
38197;BME280;26543;51.976;4.616;2024-03-07T04:08:20;58460.53;;;-140.72;100.00
38197;BME280;26543;51.976;4.616;2024-03-07T04:10:47;58499.16;;;-140.72;100.00
38197;BME280;26543;51.976;4.616;2024-03-07T04:13:12;58497.13;;;-140.72;100.00
38197;BME280;26543;51.976;4.616;2024-03-07T04:15:39;58527.59;;;-140.72;100.00
38197;BME280;26543;51.976;4.616;2024-03-07T04:18:04;58525.56;;;-140.72;100.00
38197;BME280;26543;51.976;4.616;2024-03-07T04:20:30;58608.88;;;-140.72;100.00
38197;BME280;26543;51.976;4.616;2024-03-07T04:22:55;58592.63;;;-140.72;100.00
38197;BME280;26543;51.976;4.616;2024-03-07T04:25:21;58633.28;;;-140.72;100.00
38197;BME280;26543;51.976;4.616;2024-03-07T04:27:46;58686.13;;;-140.72;100.00
38197;BME280;26543;51.976;4.616;2024-03-07T04:30:12;58726.75;;;-140.72;100.00
38197;BME280;26543;51.976;4.616;2024-03-07T04:32:38;58771.47;;;-140.72;100.00
38197;BME280;26543;51.976;4.616;2024-03-07T04:35:05;58769.44;;;-140.72;100.00
38197;BME280;26543;51.976;4.616;2024-03-07T04:37:33;58763.34;;;-140.72;100.00
38197;BME280;26543;51.976;4.616;2024-03-07T04:40:05;58779.59;;;-140.72;100.00
38197;BME280;26543;51.976;4.616;2024-03-07T04:42:46;58812.13;;;-140.72;100.00
38197;BME280;26543;51.976;4.616;2024-03-07T04:45:14;58769.44;;;-140.72;100.00
38197;BME280;26543;51.976;4.616;2024-03-07T04:47:41;58816.19;;;-140.72;100.00
38197;BME280;26543;51.976;4.616;2024-03-07T04:50:12;58834.47;;;-140.72;100.00
38197;BME280;26543;51.976;4.616;2024-03-07T04:52:38;58808.06;;;-140.72;100.00
38197;BME280;26543;51.976;4.616;2024-03-07T04:55:07;58789.78;;;-140.72;100.00
38197;BME280;26543;51.976;4.616;2024-03-07T04:57:36;58804.00;;;-140.72;100.00
38197;BME280;26543;51.976;4.616;2024-03-07T05:00:06;58814.16;;;-140.72;100.00
38197;BME280;26543;51.976;4.616;2024-03-07T05:02:34;58759.28;;;-140.72;100.00
38197;BME280;26543;51.976;4.616;2024-03-07T05:04:59;58808.06;;;-140.72;100.00
38197;BME280;26543;51.976;4.616;2024-03-07T05:07:27;58751.16;;;-140.72;100.00
38197;BME280;26543;51.976;4.616;2024-03-07T05:09:52;58728.81;;;-140.72;100.00
38197;BME280;26543;51.976;4.616;2024-03-07T05:12:17;58771.47;;;-140.72;100.00
38197;BME280;26543;51.976;4.616;2024-03-07T05:14:43;58775.53;;;-140.72;100.00
38197;BME280;26543;51.976;4.616;2024-03-07T05:17:09;58726.75;;;-140.72;100.00
38197;BME280;26543;51.976;4.616;2024-03-07T05:19:35;58767.41;;;-140.72;100.00
38197;BME280;26543;51.976;4.616;2024-03-07T05:22:01;58767.41;;;-140.72;100.00
38197;BME280;26543;51.976;4.616;2024-03-07T05:24:27;58763.34;;;-140.72;100.00
38197;BME280;26543;51.976;4.616;2024-03-07T05:26:53;58741.00;;;-140.72;100.00
38197;BME280;26543;51.976;4.616;2024-03-07T05:29:19;58791.81;;;-140.72;100.00
38197;BME280;26543;51.976;4.616;2024-03-07T05:31:44;58745.06;;;-140.72;100.00
38197;BME280;26543;51.976;4.616;2024-03-07T05:34:16;58753.19;;;-140.72;100.00
38197;BME280;26543;51.976;4.616;2024-03-07T05:36:55;58812.13;;;-140.72;100.00
38197;BME280;26543;51.976;4.616;2024-03-07T05:39:30;58844.66;;;-140.72;100.00
38197;BME280;26543;51.976;4.616;2024-03-07T05:42:04;58848.72;;;-140.72;100.00
38197;BME280;26543;51.976;4.616;2024-03-07T05:44:35;58925.94;;;-140.72;100.00
38197;BME280;26543;51.976;4.616;2024-03-07T05:47:00;58925.94;;;-140.72;100.00
38197;BME280;26543;51.976;4.616;2024-03-07T05:49:35;58942.19;;;-140.72;100.00
38197;BME280;26543;51.976;4.616;2024-03-07T05:52:03;58881.22;;;-140.72;100.00
38197;BME280;26543;51.976;4.616;2024-03-07T05:54:31;58903.59;;;-140.72;100.00
38197;BME280;26543;51.976;4.616;2024-03-07T05:57:34;58891.38;;;-140.72;100.00
38197;BME280;26543;51.976;4.616;2024-03-07T05:59:59;58905.63;;;-140.72;100.00
38197;BME280;26543;51.976;4.616;2024-03-07T06:02:39;58883.25;;;-140.72;100.00
38197;BME280;26543;51.976;4.616;2024-03-07T06:05:07;58909.69;;;-140.72;100.00
38197;BME280;26543;51.976;4.616;2024-03-07T06:07:56;58897.50;;;-140.72;100.00
38197;BME280;26543;51.976;4.616;2024-03-07T06:10:52;58816.19;;;-140.72;100.00
38197;BME280;26543;51.976;4.616;2024-03-07T06:13:32;58862.94;;;-140.72;100.00
38197;BME280;26543;51.976;4.616;2024-03-07T06:16:01;58806.03;;;-140.72;100.00
38197;BME280;26543;51.976;4.616;2024-03-07T06:18:46;58779.59;;;-140.72;100.00
38197;BME280;26543;51.976;4.616;2024-03-07T06:21:13;58734.91;;;-140.72;100.00
38197;BME280;26543;51.976;4.616;2024-03-07T06:26:14;58667.81;;;-140.72;100.00
38197;BME280;26543;51.976;4.616;2024-03-07T06:28:42;58635.31;;;-140.72;100.00
38197;BME280;26543;51.976;4.616;2024-03-07T06:31:07;58649.53;;;-140.72;100.00
38197;BME280;26543;51.976;4.616;2024-03-07T06:33:35;58629.22;;;-140.72;100.00
38197;BME280;26543;51.976;4.616;2024-03-07T06:36:01;58639.38;;;-140.72;100.00
38197;BME280;26543;51.976;4.616;2024-03-07T06:38:26;58592.63;;;-140.72;100.00
38197;BME280;26543;51.976;4.616;2024-03-07T06:40:52;58574.34;;;-140.72;100.00
38197;BME280;26543;51.976;4.616;2024-03-07T06:43:17;58541.81;;;-140.72;100.00
38197;BME280;26543;51.976;4.616;2024-03-07T06:45:43;58572.31;;;-140.72;100.00
38197;BME280;26543;51.976;4.616;2024-03-07T06:48:08;58608.88;;;-140.72;100.00
38197;BME280;26543;51.976;4.616;2024-03-07T06:50:35;58543.84;;;-140.72;100.00
38197;BME280;26543;51.976;4.616;2024-03-07T06:53:01;58556.06;;;-140.72;100.00
38197;BME280;26543;51.976;4.616;2024-03-07T06:55:27;58531.66;;;-140.72;100.00
38197;BME280;26543;51.976;4.616;2024-03-07T06:57:53;58556.06;;;-140.72;100.00
38197;BME280;26543;51.976;4.616;2024-03-07T07:00:19;58560.13;;;-140.72;100.00
38197;BME280;26543;51.976;4.616;2024-03-07T07:02:48;58495.09;;;-140.72;100.00
38197;BME280;26543;51.976;4.616;2024-03-07T07:05:14;58552.00;;;-140.72;100.00
38197;BME280;26543;51.976;4.616;2024-03-07T07:07:46;58519.47;;;-140.72;100.00
38197;BME280;26543;51.976;4.616;2024-03-07T07:10:13;58560.13;;;-140.72;100.00
38197;BME280;26543;51.976;4.616;2024-03-07T07:12:45;58495.09;;;-140.72;100.00
38197;BME280;26543;51.976;4.616;2024-03-07T07:15:11;58535.72;;;-140.72;100.00
38197;BME280;26543;51.976;4.616;2024-03-07T07:17:37;58484.94;;;-140.72;100.00
38197;BME280;26543;51.976;4.616;2024-03-07T07:20:03;58491.03;;;-140.72;100.00
38197;BME280;26543;51.976;4.616;2024-03-07T07:22:38;58460.53;;;-140.72;100.00
38197;BME280;26543;51.976;4.616;2024-03-07T07:25:04;58476.78;;;-140.72;100.00
38197;BME280;26543;51.976;4.616;2024-03-07T07:27:31;58482.88;;;-140.72;100.00
38197;BME280;26543;51.976;4.616;2024-03-07T07:29:57;58489.00;;;-140.72;100.00
38197;BME280;26543;51.976;4.616;2024-03-07T07:32:22;58446.31;;;-140.72;100.00
38197;BME280;26543;51.976;4.616;2024-03-07T07:34:48;58413.78;;;-140.72;100.00
38197;BME280;26543;51.976;4.616;2024-03-07T07:37:14;58401.59;;;-140.72;100.00
38197;BME280;26543;51.976;4.616;2024-03-07T07:39:39;58385.34;;;-140.72;100.00
38197;BME280;26543;51.976;4.616;2024-03-07T07:42:04;58354.88;;;-140.72;100.00
38197;BME280;26543;51.976;4.616;2024-03-07T07:44:30;58308.13;;;-140.72;100.00
38197;BME280;26543;51.976;4.616;2024-03-07T07:46:55;58304.06;;;-140.72;100.00
38197;BME280;26543;51.976;4.616;2024-03-07T07:49:20;58263.41;;;-140.72;100.00
38197;BME280;26543;51.976;4.616;2024-03-07T07:51:46;58239.03;;;-140.72;100.00
38197;BME280;26543;51.976;4.616;2024-03-07T07:54:14;58210.59;;;-140.72;100.00
38197;BME280;26543;51.976;4.616;2024-03-07T07:56:40;58182.13;;;-140.72;100.00
38197;BME280;26543;51.976;4.616;2024-03-07T07:59:05;58165.88;;;-140.72;100.00
38197;BME280;26543;51.976;4.616;2024-03-07T08:01:33;58106.94;;;-140.72;100.00
38197;BME280;26543;51.976;4.616;2024-03-07T08:03:59;58076.47;;;-140.72;100.00
38197;BME280;26543;51.976;4.616;2024-03-07T08:06:24;58023.63;;;-140.72;100.00
38197;BME280;26543;51.976;4.616;2024-03-07T08:08:49;58029.72;;;-140.72;100.00
38197;BME280;26543;51.976;4.616;2024-03-07T08:11:15;58027.69;;;-140.72;100.00
38197;BME280;26543;51.976;4.616;2024-03-07T08:13:40;57962.66;;;-140.72;100.00
38197;BME280;26543;51.976;4.616;2024-03-07T08:16:06;57993.16;;;-140.72;100.00
38197;BME280;26543;51.976;4.616;2024-03-07T08:18:32;57920.00;;;-140.72;100.00
38197;BME280;26543;51.976;4.616;2024-03-07T08:20:57;57824.50;;;-140.72;100.00
38197;BME280;26543;51.976;4.616;2024-03-07T08:23:23;57777.78;;;-140.72;100.00
38197;BME280;26543;51.976;4.616;2024-03-07T08:25:51;57674.16;;;-140.72;100.00
38197;BME280;26543;51.976;4.616;2024-03-07T08:28:16;57576.63;;;-140.72;100.00
38197;BME280;26543;51.976;4.616;2024-03-07T08:30:42;57468.94;;;-140.72;100.00
38197;BME280;26543;51.976;4.616;2024-03-07T08:33:07;57351.09;;;-140.72;100.00
38197;BME280;26543;51.976;4.616;2024-03-07T08:35:32;57247.47;;;-140.72;100.00
38197;BME280;26543;51.976;4.616;2024-03-07T08:37:58;57139.81;;;-140.72;100.00
38197;BME280;26543;51.976;4.616;2024-03-07T08:40:29;57036.19;;;-140.72;100.00
38197;BME280;26543;51.976;4.616;2024-03-07T08:42:58;56623.81;;;-140.72;100.00
38197;BME280;26543;51.976;4.616;2024-03-07T08:45:25;56447.13;;;-140.72;100.00
38197;BME280;26543;51.976;4.616;2024-03-07T08:47:55;56386.19;;;-140.72;100.00
38197;BME280;26543;51.976;4.616;2024-03-07T08:50:22;56270.41;;;-140.72;100.00
38197;BME280;26543;51.976;4.616;2024-03-07T08:52:48;56201.34;;;-140.72;100.00
38197;BME280;26543;51.976;4.616;2024-03-07T08:55:16;56097.75;;;-140.72;100.00
38197;BME280;26543;51.976;4.616;2024-03-07T08:57:42;55831.72;;;-140.72;100.00
38197;BME280;26543;51.976;4.616;2024-03-07T09:00:09;55600.19;;;-140.72;100.00
38197;BME280;26543;51.976;4.616;2024-03-07T09:02:37;55488.50;;;-140.72;100.00
38197;BME280;26543;51.976;4.616;2024-03-07T09:05:04;55348.38;;;-140.72;100.00
38197;BME280;26543;51.976;4.616;2024-03-07T09:07:30;55230.63;;;-140.72;100.00
38197;BME280;26543;51.976;4.616;2024-03-07T09:09:56;55090.50;;;-140.72;100.00
38197;BME280;26543;51.976;4.616;2024-03-07T09:12:22;54911.81;;;-140.72;100.00
38197;BME280;26543;51.976;4.616;2024-03-07T09:14:47;54810.31;;;-140.72;100.00
38197;BME280;26543;51.976;4.616;2024-03-07T09:17:12;54698.63;;;-140.72;100.00
38197;BME280;26543;51.976;4.616;2024-03-07T09:19:38;54627.56;;;-140.72;100.00
38197;BME280;26543;51.976;4.616;2024-03-07T09:22:03;54130.19;;;-140.72;100.00
38197;BME280;26543;51.976;4.616;2024-03-07T09:24:30;54128.16;;;-140.72;100.00
38197;BME280;26543;51.976;4.616;2024-03-07T09:26:55;54032.75;;;-140.72;100.00
38197;BME280;26543;51.976;4.616;2024-03-07T09:29:22;54000.28;;;-140.72;100.00
38197;BME280;26543;51.976;4.616;2024-03-07T09:31:50;53878.47;;;-140.72;100.00
38197;BME280;26543;51.976;4.616;2024-03-07T09:34:19;53793.22;;;-140.72;100.00
38197;BME280;26543;51.976;4.616;2024-03-07T09:36:46;53779.03;;;-140.72;100.00
38197;BME280;26543;51.976;4.616;2024-03-07T09:39:11;53724.22;;;-140.72;100.00
38197;BME280;26543;51.976;4.616;2024-03-07T09:41:40;53665.34;;;-140.72;100.00
38197;BME280;26543;51.976;4.616;2024-03-07T09:44:16;53618.66;;;-140.72;100.00
38197;BME280;26543;51.976;4.616;2024-03-07T09:46:47;53549.66;;;-140.72;100.00
38197;BME280;26543;51.976;4.616;2024-03-07T09:49:14;53543.56;;;-140.72;100.00
38197;BME280;26543;51.976;4.616;2024-03-07T09:51:40;53511.09;;;-140.72;100.00
38197;BME280;26543;51.976;4.616;2024-03-07T09:54:05;53458.31;;;-140.72;100.00
38197;BME280;26543;51.976;4.616;2024-03-07T09:56:31;53464.41;;;-140.72;100.00
38197;BME280;26543;51.976;4.616;2024-03-07T09:59:11;53403.53;;;-140.72;100.00
38197;BME280;26543;51.976;4.616;2024-03-07T10:01:37;53389.31;;;-140.72;100.00
38197;BME280;26543;51.976;4.616;2024-03-07T10:04:05;53494.84;;;-140.72;100.00
38197;BME280;26543;51.976;4.616;2024-03-07T10:06:40;53456.28;;;-140.72;100.00
38197;BME280;26543;51.976;4.616;2024-03-07T10:09:07;53480.66;;;-140.72;100.00
38197;BME280;26543;51.976;4.616;2024-03-07T10:11:35;53462.38;;;-140.72;100.00
38197;BME280;26543;51.976;4.616;2024-03-07T10:14:00;53421.78;;;-140.72;100.00
38197;BME280;26543;51.976;4.616;2024-03-07T10:16:28;53405.56;;;-140.72;100.00
38197;BME280;26543;51.976;4.616;2024-03-07T10:18:53;53375.09;;;-140.72;100.00
38197;BME280;26543;51.976;4.616;2024-03-07T10:21:19;53346.69;;;-140.72;100.00
38197;BME280;26543;51.976;4.616;2024-03-07T10:23:46;53346.69;;;-140.72;100.00
38197;BME280;26543;51.976;4.616;2024-03-07T10:26:11;53330.44;;;-140.72;100.00
38197;BME280;26543;51.976;4.616;2024-03-07T10:28:37;53184.31;;;-140.72;100.00
38197;BME280;26543;51.976;4.616;2024-03-07T10:31:03;53164.03;;;-140.72;100.00
38197;BME280;26543;51.976;4.616;2024-03-07T10:33:29;53164.03;;;-140.72;100.00
38197;BME280;26543;51.976;4.616;2024-03-07T10:35:58;53155.91;;;-140.72;100.00
38197;BME280;26543;51.976;4.616;2024-03-07T10:38:24;53153.88;;;-140.72;100.00
38197;BME280;26543;51.976;4.616;2024-03-07T10:40:54;53157.94;;;-140.72;100.00
38197;BME280;26543;51.976;4.616;2024-03-07T10:43:21;53101.13;;;-140.72;100.00
38197;BME280;26543;51.976;4.616;2024-03-07T10:45:48;53115.31;;;-140.72;100.00
38197;BME280;26543;51.976;4.616;2024-03-07T10:48:16;53127.50;;;-140.72;100.00
38197;BME280;26543;51.976;4.616;2024-03-07T10:50:45;53093.00;;;-140.72;100.00
38197;BME280;26543;51.976;4.616;2024-03-07T10:53:32;53093.00;;;-140.72;100.00
38197;BME280;26543;51.976;4.616;2024-03-07T10:58:58;53093.00;;;-140.72;100.00
38197;BME280;26543;51.976;4.616;2024-03-07T11:01:30;53088.94;;;-140.72;100.00
38197;BME280;26543;51.976;4.616;2024-03-07T11:03:57;53054.44;;;-140.72;100.00
38197;BME280;26543;51.976;4.616;2024-03-07T11:06:25;53003.69;;;-140.72;100.00
38197;BME280;26543;51.976;4.616;2024-03-07T11:08:51;52971.22;;;-140.72;100.00
38197;BME280;26543;51.976;4.616;2024-03-07T11:11:17;52902.22;;;-140.72;100.00
38197;BME280;26543;51.976;4.616;2024-03-07T11:13:43;52914.41;;;-140.72;100.00
38197;BME280;26543;51.976;4.616;2024-03-07T11:16:09;52867.72;;;-140.72;100.00
38197;BME280;26543;51.976;4.616;2024-03-07T11:18:35;52788.59;;;-140.72;0.00
38197;BME280;26543;51.976;4.616;2024-03-07T11:21:01;52743.94;;;-140.72;0.00
38197;BME280;26543;51.976;4.616;2024-03-07T11:23:31;52748.00;;;-140.72;0.00
38197;BME280;26543;51.976;4.616;2024-03-07T11:26:06;52790.63;;;-140.72;0.00
38197;BME280;26543;51.976;4.616;2024-03-07T11:28:35;52711.47;;;-140.72;0.00
38197;BME280;26543;51.976;4.616;2024-03-07T11:31:13;52685.09;;;-140.72;0.00
38197;BME280;26543;51.976;4.616;2024-03-07T11:33:39;52760.19;;;-140.72;0.00
38197;BME280;26543;51.976;4.616;2024-03-07T11:36:07;52711.47;;;-140.72;0.00
38197;BME280;26543;51.976;4.616;2024-03-07T11:38:32;52735.81;;;-140.72;0.00
38197;BME280;26543;51.976;4.616;2024-03-07T11:41:00;52699.31;;;-140.72;0.00
38197;BME280;26543;51.976;4.616;2024-03-07T11:43:30;52679.00;;;-140.72;0.00
38197;BME280;26543;51.976;4.616;2024-03-07T11:45:56;52711.47;;;-140.72;0.00
38197;BME280;26543;51.976;4.616;2024-03-07T11:48:23;52648.56;;;-140.72;0.00
38197;BME280;26543;51.976;4.616;2024-03-07T11:50:48;52666.84;;;-140.72;0.00
38197;BME280;26543;51.976;4.616;2024-03-07T11:53:14;52603.94;;;-140.72;0.00
38197;BME280;26543;51.976;4.616;2024-03-07T11:55:40;52654.66;;;-140.72;0.00
38197;BME280;26543;51.976;4.616;2024-03-07T11:58:20;52618.13;;;-140.72;0.00
38197;BME280;26543;51.976;4.616;2024-03-07T12:00:50;52573.50;;;-140.72;0.00
38197;BME280;26543;51.976;4.616;2024-03-07T12:03:17;52620.16;;;-140.72;0.00
38197;BME280;26543;51.976;4.616;2024-03-07T12:05:46;52575.50;;;-140.72;0.00
38197;BME280;26543;51.976;4.616;2024-03-07T12:08:12;52551.16;;;-140.72;0.00
38197;BME280;26543;51.976;4.616;2024-03-07T12:10:42;52551.16;;;-140.72;0.00
38197;BME280;26543;51.976;4.616;2024-03-07T12:13:11;52520.72;;;-140.72;0.00
38197;BME280;26543;51.976;4.616;2024-03-07T12:15:38;52518.69;;;-140.72;0.00
38197;BME280;26543;51.976;4.616;2024-03-07T12:18:04;52463.91;;;-140.72;0.00
38197;BME280;26543;51.976;4.616;2024-03-07T12:20:37;52470.00;;;-140.72;0.00
38197;BME280;26543;51.976;4.616;2024-03-07T12:23:05;52561.31;;;-140.72;0.00
38197;BME280;26543;51.976;4.616;2024-03-07T12:25:34;52518.69;;;-140.72;0.00
38197;BME280;26543;51.976;4.616;2024-03-07T12:30:34;52478.13;;;-140.72;0.00
38197;BME280;26543;51.976;4.616;2024-03-07T12:33:03;52520.72;;;-140.72;0.00
38197;BME280;26543;51.976;4.616;2024-03-07T12:35:30;52612.03;;;-140.72;0.00
38197;BME280;26543;51.976;4.616;2024-03-07T12:37:56;52530.88;;;-140.72;0.00
38197;BME280;26543;51.976;4.616;2024-03-07T12:40:22;52445.66;;;-140.72;0.00
38197;BME280;26543;51.976;4.616;2024-03-07T12:42:50;52632.34;;;-140.72;0.00